Safmarine Nile — VRKZ6 — position and weather

sailwx.info

Track history (hours):
 
Tides and Currents Weather Stations Pressure Air Temp Water Temp Dewpoint Dewpoint Depression Visibility Wind Speed Wind Dir Waves Ship Positions

Safmarine Nile

Last reported at 2018-Feb-06 21:44 UTC. Time now 2018-Feb-20 12:05 UTC.
Position N 36°02' W 005°24'.
Warning: this ship's position is 13 days out of date.

Length 210 m; draft 8.7 m.

Type: Ship (hazmat cat A). MMSI: 477552700.

Date/timePositionNaut miles runAvg speedWind from/ knotsBaromVisibWave heightAir tempDewpointWater temp
2018-Feb-06 21:44N 36°02' W 005°24'  
2018-Feb-01 05:46N 36°03' W 005°17'10 6.9
2018-Feb-01 04:23N 35°58' W 005°27'232 7.4
2018-Jan-30 21:14N 38°06' W 009°30'1410.5
2018-Jan-30 19:52N 38°20' W 009°27'410.5
2018-Jan-30 19:29N 38°24' W 009°26'510.3
2018-Jan-30 19:00N 38°29' W 009°25'510.1
2018-Jan-30 18:30N 38°33' W 009°23'610.5
2018-Jan-30 17:57N 38°39' W 009°20'611.2
2018-Jan-30 17:25N 38°41' W 009°13'3 0.1
2018-Jan-29 06:53N 38°42' W 009°10'0 0.1
2018-Jan-29 06:27N 38°42' W 009°10'3 5.5
2018-Jan-29 05:59N 38°41' W 009°13'3 5.0
2018-Jan-29 05:28N 38°41' W 009°17'4 8.2
2018-Jan-29 04:59N 38°39' W 009°20'4 8.8
2018-Jan-29 04:30N 38°36' W 009°25'5 9.0
2018-Jan-29 04:00N 38°33' W 009°29'5 9.1
2018-Jan-29 03:29N 38°31' W 009°34'8 1.4
2018-Jan-28 22:05N 38°24' W 009°40'0 1.3
2018-Jan-28 21:58N 38°24' W 009°39'1 1.2
2018-Jan-28 21:26N 38°25' W 009°39'1 1.0
2018-Jan-28 20:15N 38°25' W 009°37'1 1.6
2018-Jan-28 19:45N 38°26' W 009°37'0 1.2
2018-Jan-28 19:30N 38°26' W 009°37'3 1.3
2018-Jan-28 17:29N 38°28' W 009°35'1 1.8
2018-Jan-28 16:54N 38°27' W 009°35'23 2.7
2018-Jan-28 08:30N 38°06' W 009°23'5 9.4
2018-Jan-28 08:00N 38°02' W 009°20'5 9.9
2018-Jan-28 07:30N 37°58' W 009°18'510.0
2018-Jan-28 07:00N 37°53' W 009°16'1 2.7
2018-Jan-28 06:30N 37°52' W 009°16'510.7
2018-Jan-28 06:00N 37°56' W 009°19'510.8
2018-Jan-28 05:30N 38°01' W 009°22'3210.7
2018-Jan-28 02:31N 38°30' W 009°40'1 8.3
2018-Jan-28 02:25N 38°30' W 009°41'23 8.7
2018-Jan-27 23:49N 38°10' W 009°27'4 8.7
2018-Jan-27 23:20N 38°07' W 009°25'3 8.4
2018-Jan-27 23:00N 38°04' W 009°23'4 8.5
2018-Jan-27 22:30N 38°01' W 009°20'4 8.4
2018-Jan-27 22:00N 37°57' W 009°18'  
Track history (hours):
 
Tides and Currents Weather Stations Pressure Air Temp Water Temp Dewpoint Dewpoint Depression Visibility Wind Speed Wind Dir Waves Ship Positions

Safmarine Nile

Last reported at 2018-Feb-06 21:44 UTC. Time now 2018-Feb-20 12:05 UTC.
Position N 36°02' W 005°24'.
Warning: this ship's position is 13 days out of date.

Length 210 m; draft 8.7 m.

Type: Ship (hazmat cat A). MMSI: 477552700.

Date/timePositionNaut miles runAvg speedWind from/ knotsBaromVisibWave heightAir tempDewpointWater temp
2018-Feb-06 21:44N 36°02' W 005°24'  
2018-Feb-01 05:46N 36°03' W 005°17'10 6.9
2018-Feb-01 04:23N 35°58' W 005°27'232 7.4
2018-Jan-30 21:14N 38°06' W 009°30'1410.5
2018-Jan-30 19:52N 38°20' W 009°27'410.5
2018-Jan-30 19:29N 38°24' W 009°26'510.3
2018-Jan-30 19:00N 38°29' W 009°25'510.1
2018-Jan-30 18:30N 38°33' W 009°23'610.5
2018-Jan-30 17:57N 38°39' W 009°20'611.2
2018-Jan-30 17:25N 38°41' W 009°13'3 0.1
2018-Jan-29 06:53N 38°42' W 009°10'0 0.1
2018-Jan-29 06:27N 38°42' W 009°10'3 5.5
2018-Jan-29 05:59N 38°41' W 009°13'3 5.0
2018-Jan-29 05:28N 38°41' W 009°17'4 8.2
2018-Jan-29 04:59N 38°39' W 009°20'4 8.8
2018-Jan-29 04:30N 38°36' W 009°25'5 9.0
2018-Jan-29 04:00N 38°33' W 009°29'5 9.1
2018-Jan-29 03:29N 38°31' W 009°34'8 1.4
2018-Jan-28 22:05N 38°24' W 009°40'0 1.3
2018-Jan-28 21:58N 38°24' W 009°39'1 1.2
2018-Jan-28 21:26N 38°25' W 009°39'1 1.0
2018-Jan-28 20:15N 38°25' W 009°37'1 1.6
2018-Jan-28 19:45N 38°26' W 009°37'0 1.2
2018-Jan-28 19:30N 38°26' W 009°37'3 1.3
2018-Jan-28 17:29N 38°28' W 009°35'1 1.8
2018-Jan-28 16:54N 38°27' W 009°35'23 2.7
2018-Jan-28 08:30N 38°06' W 009°23'5 9.4
2018-Jan-28 08:00N 38°02' W 009°20'5 9.9
2018-Jan-28 07:30N 37°58' W 009°18'510.0
2018-Jan-28 07:00N 37°53' W 009°16'1 2.7
2018-Jan-28 06:30N 37°52' W 009°16'510.7
2018-Jan-28 06:00N 37°56' W 009°19'510.8
2018-Jan-28 05:30N 38°01' W 009°22'3210.7
2018-Jan-28 02:31N 38°30' W 009°40'1 8.3
2018-Jan-28 02:25N 38°30' W 009°41'23 8.7
2018-Jan-27 23:49N 38°10' W 009°27'4 8.7
2018-Jan-27 23:20N 38°07' W 009°25'3 8.4
2018-Jan-27 23:00N 38°04' W 009°23'4 8.5
2018-Jan-27 22:30N 38°01' W 009°20'4 8.4
2018-Jan-27 22:00N 37°57' W 009°18'  

Dump ship's entire track history